Time;durP1;ratioP1;P1;durP2;ratioP2;P2;SDS_P1;SDS_P2;PMS_P1;PMS_P2;Temp;Humidity;BMP_temperature;BMP_pressure;BME280_temperature;BME280_humidity;BME280_pressure;Samples;Min_cycle;Max_cycle;Signal;HPM_P1;HPM_P2
2021/05/13 00:01:26;;;;;;;16.33;15.03;;;14.40;99.90;;;;;;5051668;28;20263;-76
2021/05/13 00:03:54;;;;;;;15.67;14.20;;;14.40;99.90;;;;;;5052376;28;20211;-75
2021/05/13 00:06:20;;;;;;;15.87;14.37;;;14.40;99.90;;;;;;5033664;28;20423;-77
2021/05/13 00:08:54;;;;;;;16.00;14.67;;;14.40;99.90;;;;;;5052278;28;20432;-76
2021/05/13 00:11:25;;;;;;;15.00;13.70;;;14.30;99.90;;;;;;5051412;28;20400;-76
2021/05/13 00:13:51;;;;;;;16.07;14.77;;;14.30;99.90;;;;;;5052450;28;20473;-75
2021/05/13 00:16:17;;;;;;;14.70;13.43;;;14.30;99.90;;;;;;5033912;28;20817;-78
2021/05/13 00:18:42;;;;;;;15.73;14.13;;;14.30;99.90;;;;;;5051826;28;20248;-75
2021/05/13 00:21:08;;;;;;;16.17;14.47;;;14.30;99.90;;;;;;5052235;28;20223;-75
2021/05/13 00:23:34;;;;;;;16.53;14.60;;;14.30;99.90;;;;;;5033365;28;20200;-75
2021/05/13 00:25:59;;;;;;;16.17;14.77;;;14.20;99.90;;;;;;5052266;28;20221;-75
2021/05/13 00:28:26;;;;;;;15.10;13.80;;;14.20;99.80;;;;;;5051224;28;20667;-75
2021/05/13 00:30:52;;;;;;;15.33;14.00;;;14.10;99.60;;;;;;5051838;28;20451;-75
2021/05/13 00:33:17;;;;;;;15.17;13.97;;;14.10;99.50;;;;;;5052104;28;20279;-78
2021/05/13 00:35:43;;;;;;;16.57;15.00;;;14.00;99.30;;;;;;5051273;28;20183;-75
2021/05/13 00:38:09;;;;;;;16.10;14.70;;;14.00;99.70;;;;;;5051899;28;20659;-75
2021/05/13 00:40:35;;;;;;;15.43;14.10;;;13.90;99.90;;;;;;5033539;28;20180;-75
2021/05/13 00:43:02;;;;;;;15.17;13.77;;;13.90;99.90;;;;;;5052002;28;20202;-75
2021/05/13 00:45:28;;;;;;;15.40;14.03;;;13.90;99.90;;;;;;5051275;28;20472;-75
2021/05/13 00:50:23;;;;;;;15.37;14.10;;;13.80;99.90;;;;;;5051132;28;20759;-76
2021/05/13 00:52:50;;;;;;;15.47;14.17;;;13.80;99.90;;;;;;5051301;28;20431;-75
2021/05/13 00:55:17;;;;;;;15.33;14.10;;;13.70;99.90;;;;;;5051916;28;20442;-75
2021/05/13 00:57:46;;;;;;;14.97;13.67;;;13.70;99.90;;;;;;5051089;28;20460;-75
2021/05/13 01:01:05;;;;;;;14.37;13.07;;;13.70;99.90;;;;;;5051943;28;20410;-75
2021/05/13 01:03:05;;;;;;;14.27;13.07;;;13.70;99.90;;;;;;5038308;28;20451;-75
2021/05/13 01:05:33;;;;;;;14.20;12.70;;;13.70;99.90;;;;;;5050896;28;20456;-75
2021/05/13 01:08:01;;;;;;;15.87;14.40;;;13.50;99.90;;;;;;5037726;28;20434;-75
2021/05/13 01:10:27;;;;;;;13.30;12.20;;;13.50;99.90;;;;;;5055209;28;20512;-75
2021/05/13 01:12:57;;;;;;;14.20;12.90;;;13.50;99.90;;;;;;5055636;28;20837;-75
2021/05/13 01:15:30;;;;;;;14.30;12.93;;;13.50;99.90;;;;;;5054665;28;20462;-78
2021/05/13 01:20:26;;;;;;;13.87;12.70;;;13.40;99.90;;;;;;5054450;28;20414;-75
2021/05/13 01:22:54;;;;;;;14.63;12.73;;;13.40;99.90;;;;;;5055443;28;20458;-75
2021/05/13 01:25:20;;;;;;;13.77;12.57;;;13.40;99.90;;;;;;5054674;28;20950;-78
2021/05/13 01:27:46;;;;;;;13.27;12.07;;;13.40;99.90;;;;;;5054866;28;20936;-75
2021/05/13 01:30:14;;;;;;;13.90;12.73;;;13.30;99.90;;;;;;5054721;28;20426;-75
2021/05/13 01:32:40;;;;;;;15.03;13.40;;;13.30;99.90;;;;;;5054463;28;20182;-75
2021/05/13 01:35:06;;;;;;;14.50;13.03;;;13.30;99.90;;;;;;5055215;28;20451;-75
2021/05/13 01:37:32;;;;;;;14.10;12.83;;;13.20;99.90;;;;;;5054228;28;20175;-75
2021/05/13 01:39:57;;;;;;;14.23;12.83;;;13.10;99.90;;;;;;5037428;28;20413;-75
2021/05/13 01:42:23;;;;;;;13.30;12.20;;;13.00;99.90;;;;;;5054620;28;20618;-78
2021/05/13 01:44:49;;;;;;;12.70;11.70;;;13.00;99.90;;;;;;5054551;28;20294;-75
2021/05/13 01:47:14;;;;;;;14.57;13.27;;;13.10;99.90;;;;;;5055049;28;20184;-75
2021/05/13 01:49:40;;;;;;;13.00;11.70;;;13.00;99.90;;;;;;5054195;28;20170;-75
2021/05/13 01:52:06;;;;;;;14.20;13.00;;;13.00;99.90;;;;;;5055081;28;20176;-75
2021/05/13 01:54:32;;;;;;;13.30;12.20;;;13.00;99.90;;;;;;5053549;28;20233;-75
2021/05/13 01:57:05;;;;;;;13.37;12.37;;;12.90;99.90;;;;;;5054933;28;20420;-75
2021/05/13 01:59:32;;;;;;;13.00;11.97;;;12.90;99.90;;;;;;5053795;28;20173;-75
2021/05/13 02:01:59;;;;;;;12.70;11.70;;;12.90;99.90;;;;;;5054432;28;20866;-75
2021/05/13 02:04:25;;;;;;;12.30;11.10;;;12.90;99.90;;;;;;5054105;28;20542;-78
2021/05/13 02:06:51;;;;;;;12.90;11.90;;;12.90;99.90;;;;;;5054560;28;20908;-75
2021/05/13 02:09:16;;;;;;;13.47;12.33;;;12.90;99.70;;;;;;5053976;28;20451;-75
2021/05/13 02:11:42;;;;;;;13.77;12.47;;;12.80;99.90;;;;;;5036078;28;21063;-75
2021/05/13 02:14:08;;;;;;;12.90;11.80;;;12.80;99.90;;;;;;5054366;28;20219;-75
2021/05/13 02:16:34;;;;;;;12.43;11.43;;;12.70;99.90;;;;;;5053973;28;20190;-75
2021/05/13 02:18:59;;;;;;;13.43;12.23;;;12.70;99.90;;;;;;5053787;28;20185;-75
2021/05/13 02:21:25;;;;;;;12.90;11.77;;;12.70;99.90;;;;;;5053996;28;20695;-78
2021/05/13 02:23:51;;;;;;;13.80;12.27;;;12.70;99.90;;;;;;5053691;28;20225;-75
2021/05/13 02:26:20;;;;;;;13.67;12.33;;;12.70;99.90;;;;;;5054340;28;20223;-75
2021/05/13 02:28:46;;;;;;;12.77;11.57;;;12.70;99.90;;;;;;5053415;28;20253;-75
2021/05/13 02:31:12;;;;;;;12.00;11.00;;;12.70;99.90;;;;;;5054194;28;20420;-75
2021/05/13 02:33:37;;;;;;;12.87;11.77;;;12.70;99.90;;;;;;5053286;28;20408;-75
2021/05/13 02:36:04;;;;;;;12.53;11.50;;;12.70;99.90;;;;;;5054221;28;20630;-75
2021/05/13 02:38:29;;;;;;;13.40;12.07;;;12.60;99.90;;;;;;5035360;28;20536;-75
2021/05/13 02:40:55;;;;;;;13.17;12.10;;;12.60;99.90;;;;;;5054152;28;20407;-75
2021/05/13 02:43:21;;;;;;;13.97;12.73;;;12.60;99.90;;;;;;5053938;28;20231;-75
2021/05/13 02:45:47;;;;;;;12.60;11.40;;;12.60;99.90;;;;;;5053281;28;20241;-75
2021/05/13 02:48:13;;;;;;;13.93;12.73;;;12.50;99.90;;;;;;5053925;28;20490;-75
2021/05/13 02:50:38;;;;;;;13.10;12.00;;;12.50;99.90;;;;;;5052948;28;20243;-75
2021/05/13 02:53:04;;;;;;;12.47;11.47;;;12.50;99.90;;;;;;5053842;28;20179;-75
2021/05/13 02:55:30;;;;;;;13.73;12.53;;;12.40;99.90;;;;;;5052123;28;20187;-76
2021/05/13 02:57:58;;;;;;;14.27;12.87;;;12.30;99.90;;;;;;5053730;28;20758;-75
2021/05/13 03:00:28;;;;;;;16.30;14.70;;;12.40;99.90;;;;;;5053507;28;20225;-75
2021/05/13 03:02:54;;;;;;;16.57;14.97;;;12.20;99.90;;;;;;5053143;28;20412;-75
2021/05/13 03:05:25;;;;;;;18.50;15.70;;;12.00;99.90;;;;;;5053562;28;20871;-75
2021/05/13 03:07:54;;;;;;;16.53;15.03;;;12.00;99.90;;;;;;5052963;28;20402;-75
2021/05/13 03:11:06;;;;;;;18.70;17.10;;;12.00;99.90;;;;;;5053286;28;20418;-75
2021/05/13 03:13:10;;;;;;;17.20;15.57;;;12.10;99.90;;;;;;5025041;28;20423;-75
2021/05/13 03:15:36;;;;;;;17.73;16.03;;;12.10;99.90;;;;;;5052778;28;20458;-75
2021/05/13 03:18:02;;;;;;;16.50;14.80;;;12.20;99.90;;;;;;5053268;28;20439;-75
2021/05/13 03:20:39;;;;;;;16.67;15.13;;;12.20;99.90;;;;;;5052028;28;20544;-78
2021/05/13 03:23:08;;;;;;;15.37;14.03;;;12.20;99.90;;;;;;5053379;28;20726;-75
2021/05/13 03:25:36;;;;;;;15.17;13.60;;;12.20;99.90;;;;;;5052021;28;20504;-75
2021/05/13 03:28:09;;;;;;;16.00;14.50;;;12.20;99.90;;;;;;5052836;28;20461;-75
2021/05/13 03:30:45;;;;;;;16.03;14.33;;;12.10;99.90;;;;;;5051100;28;20396;-75
2021/05/13 03:33:13;;;;;;;14.60;13.30;;;12.10;99.90;;;;;;5053323;28;20404;-75
2021/05/13 03:35:40;;;;;;;16.30;14.80;;;12.10;99.70;;;;;;5052432;28;20430;-75
2021/05/13 03:38:08;;;;;;;14.93;13.60;;;12.10;99.80;;;;;;5035198;28;20414;-75
2021/05/13 03:40:34;;;;;;;14.77;13.40;;;12.10;99.70;;;;;;5052121;28;20738;-75
2021/05/13 03:43:01;;;;;;;15.53;14.07;;;12.00;99.80;;;;;;5052341;28;20542;-75
2021/05/13 03:45:27;;;;;;;14.93;13.63;;;12.00;99.90;;;;;;5052166;28;20937;-76
2021/05/13 03:47:53;;;;;;;13.70;12.50;;;12.00;99.90;;;;;;5051731;28;20433;-75
2021/05/13 03:50:19;;;;;;;14.70;13.23;;;12.00;99.80;;;;;;5034537;28;20952;-75
2021/05/13 03:52:45;;;;;;;16.10;14.70;;;12.00;99.80;;;;;;5051669;28;20192;-75
2021/05/13 03:55:11;;;;;;;14.50;13.10;;;11.90;99.90;;;;;;5052415;28;20427;-75
2021/05/13 03:57:38;;;;;;;14.60;13.30;;;12.00;99.90;;;;;;5051676;28;20178;-76
2021/05/13 04:00:09;;;;;;;15.73;14.23;;;11.90;99.90;;;;;;5052374;28;20427;-75
2021/05/13 04:02:35;;;;;;;17.90;16.00;;;12.00;99.90;;;;;;5051590;28;20434;-76
2021/05/13 04:05:02;;;;;;;16.00;14.60;;;12.00;99.90;;;;;;5052521;28;20443;-75
2021/05/13 04:07:30;;;;;;;16.67;15.17;;;11.90;99.90;;;;;;5052693;28;20235;-75
2021/05/13 04:09:56;;;;;;;16.57;15.13;;;11.90;99.90;;;;;;5043951;28;20463;-75
2021/05/13 04:12:23;;;;;;;17.23;15.53;;;12.00;99.90;;;;;;5051532;28;20449;-81
2021/05/13 04:14:50;;;;;;;16.67;15.17;;;11.90;99.90;;;;;;5051246;28;20439;-75
2021/05/13 04:17:16;;;;;;;16.00;14.60;;;11.90;99.90;;;;;;5052350;28;20423;-75
2021/05/13 04:19:41;;;;;;;15.93;14.43;;;11.90;99.90;;;;;;5034278;28;20407;-75
2021/05/13 04:22:07;;;;;;;16.67;15.00;;;11.90;99.90;;;;;;5052617;28;20967;-75
2021/05/13 04:24:33;;;;;;;16.73;15.23;;;11.90;99.90;;;;;;5051607;28;20205;-75
2021/05/13 04:26:59;;;;;;;15.50;14.20;;;11.90;99.90;;;;;;5052586;28;20887;-75
2021/05/13 04:29:25;;;;;;;16.80;14.93;;;12.00;99.90;;;;;;5052524;28;20423;-75
2021/05/13 04:31:51;;;;;;;15.93;14.43;;;11.90;99.90;;;;;;5050915;28;20450;-75
2021/05/13 04:34:16;;;;;;;17.33;14.70;;;11.90;99.90;;;;;;5051908;28;20261;-75
2021/05/13 04:36:42;;;;;;;16.13;14.70;;;11.90;99.90;;;;;;5051189;28;20180;-75
2021/05/13 04:39:08;;;;;;;16.23;14.63;;;11.90;99.90;;;;;;5052005;28;20256;-81
2021/05/13 04:41:34;;;;;;;16.27;14.67;;;11.90;99.90;;;;;;5053023;28;20192;-77
2021/05/13 04:44:02;;;;;;;15.93;14.37;;;11.90;99.90;;;;;;5056133;28;20231;-75
2021/05/13 04:46:32;;;;;;;15.53;14.23;;;11.90;99.90;;;;;;5055652;28;20997;-75
2021/05/13 04:51:32;;;;;;;16.00;14.37;;;11.90;99.90;;;;;;5056042;28;20400;-76
2021/05/13 04:53:58;;;;;;;16.70;15.20;;;11.90;99.90;;;;;;5055085;28;20910;-76
2021/05/13 04:56:25;;;;;;;16.77;15.23;;;11.90;99.90;;;;;;5055922;28;20758;-78
2021/05/13 04:58:51;;;;;;;23.07;16.17;;;11.90;99.90;;;;;;5054879;28;20443;-77
2021/05/13 05:01:17;;;;;;;15.37;13.97;;;11.90;99.90;;;;;;5055889;28;20435;-77
2021/05/13 05:03:42;;;;;;;16.50;14.97;;;11.90;99.90;;;;;;5055484;28;20412;-77
2021/05/13 05:06:11;;;;;;;16.73;15.20;;;11.90;99.90;;;;;;5055937;28;20408;-77
2021/05/13 05:08:38;;;;;;;16.50;15.10;;;11.90;99.90;;;;;;5055247;28;20175;-78
2021/05/13 05:11:05;;;;;;;18.47;16.77;;;12.00;99.90;;;;;;5056168;28;20419;-77
2021/05/13 05:13:31;;;;;;;17.10;15.50;;;12.00;99.90;;;;;;5055827;28;20424;-76
2021/05/13 05:15:57;;;;;;;17.00;15.47;;;12.00;99.90;;;;;;5055590;28;20420;-76
2021/05/13 05:18:25;;;;;;;17.20;15.60;;;12.00;99.90;;;;;;5037962;28;20191;-76
2021/05/13 05:20:52;;;;;;;16.87;15.27;;;12.00;99.90;;;;;;5055468;28;20902;-76
2021/05/13 05:23:18;;;;;;;16.33;14.67;;;12.10;99.90;;;;;;5055847;28;20407;-76
2021/05/13 05:25:44;;;;;;;17.20;15.70;;;12.10;99.90;;;;;;5055181;28;20824;-76
2021/05/13 05:28:10;;;;;;;17.47;15.53;;;12.10;99.90;;;;;;5055646;28;20435;-81
2021/05/13 05:30:37;;;;;;;18.13;16.43;;;12.10;99.90;;;;;;5055012;28;20415;-81
2021/05/13 05:33:08;;;;;;;18.40;16.50;;;12.20;99.90;;;;;;5055786;28;20196;-80
2021/05/13 05:35:35;;;;;;;18.90;17.10;;;12.20;99.90;;;;;;5038014;28;20447;-79
2021/05/13 05:38:02;;;;;;;19.47;17.33;;;12.20;99.90;;;;;;5036948;28;20444;-80
2021/05/13 05:40:28;;;;;;;19.43;17.50;;;12.30;99.90;;;;;;5037183;28;20503;-80
2021/05/13 05:42:54;;;;;;;18.37;16.57;;;12.30;99.90;;;;;;5054574;28;20408;-80
2021/05/13 05:45:21;;;;;;;18.43;16.63;;;12.40;99.90;;;;;;5055482;28;20965;-81
2021/05/13 05:47:48;;;;;;;19.87;17.97;;;12.40;99.90;;;;;;5036972;28;20432;-81
2021/05/13 05:50:14;;;;;;;19.73;17.83;;;12.40;99.90;;;;;;5055656;28;20424;-81
2021/05/13 05:52:40;;;;;;;20.07;18.20;;;12.40;99.90;;;;;;5053694;28;20424;-81
2021/05/13 05:55:07;;;;;;;20.60;18.60;;;12.50;99.90;;;;;;5055273;28;20411;-81
2021/05/13 05:57:32;;;;;;;20.33;18.33;;;12.50;99.90;;;;;;5055254;28;20748;-81
2021/05/13 05:59:58;;;;;;;20.20;17.97;;;12.60;99.90;;;;;;5036799;28;20410;-80
2021/05/13 06:02:25;;;;;;;20.60;18.50;;;12.70;99.90;;;;;;5055121;28;20178;-81
2021/05/13 06:04:52;;;;;;;20.90;18.20;;;12.70;99.90;;;;;;5054408;28;20456;-81
2021/05/13 06:07:19;;;;;;;22.23;20.03;;;12.80;99.90;;;;;;5054909;28;20587;-80
2021/05/13 06:09:44;;;;;;;20.57;18.37;;;12.80;99.90;;;;;;5054426;28;20923;-81
2021/05/13 06:12:11;;;;;;;20.33;18.13;;;12.90;99.90;;;;;;5055210;28;20409;-80
2021/05/13 06:14:36;;;;;;;20.43;18.37;;;12.90;99.90;;;;;;5036722;28;20193;-83
2021/05/13 06:17:02;;;;;;;18.43;16.73;;;13.00;99.90;;;;;;5037021;28;20409;-80
2021/05/13 06:19:28;;;;;;;18.93;17.23;;;13.10;99.90;;;;;;5054771;28;20231;-80
2021/05/13 06:21:54;;;;;;;19.17;17.20;;;13.20;99.90;;;;;;5054177;28;20188;-80
2021/05/13 06:24:20;;;;;;;18.23;16.43;;;13.30;99.90;;;;;;5054402;28;20294;-80
2021/05/13 06:26:59;;;;;;;20.40;18.40;;;13.40;99.90;;;;;;5054396;28;20250;-80
2021/05/13 06:29:25;;;;;;;19.50;17.60;;;13.50;99.90;;;;;;5036658;28;20392;-80
2021/05/13 06:31:51;;;;;;;20.67;18.70;;;13.50;99.90;;;;;;5054003;28;20745;-81
2021/05/13 06:34:17;;;;;;;19.23;17.40;;;13.60;99.90;;;;;;5054307;28;20511;-81
2021/05/13 06:36:43;;;;;;;20.37;18.50;;;13.70;99.90;;;;;;5053472;28;20647;-81
2021/05/13 06:39:09;;;;;;;21.33;16.20;;;13.80;99.90;;;;;;5054563;28;20403;-76
2021/05/13 06:41:35;;;;;;;18.50;16.70;;;13.90;99.90;;;;;;5054384;28;20714;-78
2021/05/13 06:44:01;;;;;;;17.70;16.00;;;14.50;99.90;;;;;;5053612;28;20439;-78
2021/05/13 06:46:27;;;;;;;17.63;15.93;;;14.90;99.90;;;;;;5036530;28;20412;-79
2021/05/13 06:48:53;;;;;;;15.40;13.77;;;15.40;99.90;;;;;;5053690;28;20408;-80
2021/05/13 06:51:19;;;;;;;16.10;14.57;;;15.90;99.90;;;;;;5054211;28;20180;-80
2021/05/13 06:53:46;;;;;;;14.80;13.40;;;16.40;99.90;;;;;;5053621;28;20769;-81
2021/05/13 06:56:12;;;;;;;14.20;12.87;;;16.90;98.10;;;;;;5036415;28;20810;-80
2021/05/13 06:58:38;;;;;;;18.40;16.47;;;17.30;96.10;;;;;;5054119;28;20487;-80
2021/05/13 07:01:04;;;;;;;16.13;14.83;;;17.60;95.20;;;;;;5053409;28;20546;-80
2021/05/13 07:03:30;;;;;;;14.70;13.50;;;17.90;94.30;;;;;;5053842;28;20182;-81
2021/05/13 07:05:56;;;;;;;16.70;15.13;;;18.10;93.80;;;;;;5053221;28;20448;-81
2021/05/13 07:08:22;;;;;;;16.67;15.17;;;18.40;92.80;;;;;;5054067;28;20454;-81
2021/05/13 07:10:47;;;;;;;17.03;15.53;;;18.60;91.90;;;;;;5053207;28;20408;-81
2021/05/13 07:13:14;;;;;;;15.03;13.83;;;18.80;91.10;;;;;;5054042;28;20535;-81
2021/05/13 07:15:40;;;;;;;14.03;12.93;;;18.90;90.70;;;;;;5054079;28;20182;-80
2021/05/13 07:18:11;;;;;;;14.30;13.10;;;19.00;90.50;;;;;;5053787;28;20409;-81
2021/05/13 07:20:37;;;;;;;12.70;11.70;;;19.10;90.10;;;;;;5053718;28;20400;-81
2021/05/13 07:23:04;;;;;;;13.33;12.10;;;19.20;90.00;;;;;;5035590;28;20473;-80
2021/05/13 07:25:32;;;;;;;12.23;11.17;;;19.30;89.30;;;;;;5053418;28;20572;-80
2021/05/13 07:27:58;;;;;;;13.97;12.87;;;19.40;88.20;;;;;;5052934;28;20404;-81
2021/05/13 07:30:24;;;;;;;12.57;11.40;;;19.60;87.30;;;;;;5035670;28;20781;-81
2021/05/13 07:32:50;;;;;;;13.03;12.03;;;19.60;87.10;;;;;;5052536;28;20415;-81
2021/05/13 07:35:17;;;;;;;13.07;11.93;;;19.70;85.70;;;;;;5053491;28;20427;-81
2021/05/13 07:37:44;;;;;;;14.80;13.50;;;19.80;85.20;;;;;;5052794;28;20470;-81
2021/05/13 07:40:11;;;;;;;13.13;11.93;;;19.90;84.90;;;;;;5053410;28;20416;-81
2021/05/13 07:42:37;;;;;;;14.03;12.87;;;19.90;84.50;;;;;;5035738;28;20408;-81
2021/05/13 07:45:03;;;;;;;13.50;12.30;;;20.00;83.80;;;;;;5034682;28;20558;-81
2021/05/13 07:47:29;;;;;;;12.83;11.73;;;20.00;83.00;;;;;;5035335;28;20609;-81
2021/05/13 07:49:55;;;;;;;12.90;11.90;;;20.00;82.30;;;;;;5052529;28;20487;-81
2021/05/13 07:52:22;;;;;;;12.57;11.43;;;20.10;82.50;;;;;;5053380;28;20243;-81
2021/05/13 07:54:48;;;;;;;10.40;9.67;;;20.20;82.60;;;;;;5052550;28;20519;-82
2021/05/13 07:57:14;;;;;;;10.40;9.63;;;20.10;81.20;;;;;;5052990;28;20420;-81
2021/05/13 07:59:40;;;;;;;10.20;9.33;;;20.20;81.40;;;;;;5052983;28;20209;-81
2021/05/13 08:02:06;;;;;;;9.80;9.00;;;20.20;81.20;;;;;;5052001;28;20598;-81
2021/05/13 08:04:32;;;;;;;10.40;9.50;;;20.40;80.00;;;;;;5053001;28;20207;-82
2021/05/13 08:06:58;;;;;;;10.33;9.53;;;20.50;80.00;;;;;;5034539;28;20759;-81
2021/05/13 08:09:23;;;;;;;9.30;8.50;;;20.50;80.60;;;;;;5034833;28;20494;-81
2021/05/13 08:11:49;;;;;;;11.17;10.13;;;20.50;79.60;;;;;;5052311;28;20541;-81
2021/05/13 08:14:15;;;;;;;10.33;9.53;;;20.60;79.30;;;;;;5052965;28;20235;-81
2021/05/13 08:16:41;;;;;;;9.40;8.60;;;20.70;79.40;;;;;;5034332;28;20622;-81
2021/05/13 08:19:08;;;;;;;9.70;8.97;;;20.70;79.00;;;;;;5051786;28;20177;-81
2021/05/13 08:21:35;;;;;;;10.30;9.40;;;20.70;78.10;;;;;;5051651;28;20421;-80
2021/05/13 08:24:01;;;;;;;16.20;14.80;;;20.80;76.90;;;;;;5052014;28;20432;-81
2021/05/13 08:26:28;;;;;;;12.03;10.83;;;20.90;76.10;;;;;;5052179;28;20487;-81
2021/05/13 08:28:56;;;;;;;7.80;7.27;;;21.00;74.30;;;;;;5051880;28;20617;-79
2021/05/13 08:31:22;;;;;;;7.80;7.07;;;21.10;74.30;;;;;;5052741;28;20406;-79
2021/05/13 08:33:48;;;;;;;10.53;9.73;;;21.10;74.90;;;;;;5051732;28;20311;-81
2021/05/13 08:36:13;;;;;;;9.67;8.90;;;21.10;72.40;;;;;;5052470;28;20209;-80
2021/05/13 08:38:39;;;;;;;57.70;45.13;;;21.20;73.00;;;;;;5052443;28;20185;-79
2021/05/13 08:41:05;;;;;;;16.60;15.07;;;21.30;74.40;;;;;;5052060;28;20865;-79
2021/05/13 08:43:31;;;;;;;43.13;38.57;;;21.40;74.70;;;;;;5052459;28;20185;-80
2021/05/13 08:45:58;;;;;;;51.87;43.53;;;21.50;74.10;;;;;;5033602;28;20467;-80
2021/05/13 08:48:28;;;;;;;42.57;38.00;;;21.70;73.30;;;;;;5052372;28;20608;-80
2021/05/13 08:50:55;;;;;;;10.97;10.00;;;21.80;72.50;;;;;;5033925;28;20437;-80
2021/05/13 08:53:21;;;;;;;11.20;10.20;;;21.90;72.00;;;;;;5052175;28;20427;-80
2021/05/13 08:55:47;;;;;;;21.30;19.23;;;22.00;70.50;;;;;;5052027;28;20541;-80
2021/05/13 08:58:12;;;;;;;16.60;15.10;;;22.00;68.40;;;;;;5052279;28;20874;-80
2021/05/13 09:00:38;;;;;;;13.90;12.63;;;22.10;68.60;;;;;;5052631;28;20170;-80
2021/05/13 09:03:04;;;;;;;11.33;10.50;;;22.20;67.70;;;;;;5051476;28;20404;-80
2021/05/13 09:05:30;;;;;;;8.70;8.00;;;22.20;66.50;;;;;;5052095;28;20495;-80
2021/05/13 09:07:56;;;;;;;6.93;6.40;;;22.30;67.10;;;;;;5051482;28;20408;-80
2021/05/13 09:10:25;;;;;;;9.30;8.50;;;22.40;65.90;;;;;;5051902;28;20412;-80
2021/05/13 09:12:52;;;;;;;9.67;8.77;;;22.50;65.60;;;;;;5051568;28;20174;-80
2021/05/13 09:15:20;;;;;;;8.93;8.10;;;22.70;65.50;;;;;;5052180;28;20409;-80
2021/05/13 09:17:49;;;;;;;8.67;7.97;;;22.70;64.10;;;;;;5052222;28;20911;-80
2021/05/13 09:20:30;;;;;;;8.20;7.60;;;22.80;63.70;;;;;;5052152;28;20415;-80
2021/05/13 09:23:11;;;;;;;7.60;7.00;;;22.80;62.30;;;;;;5051539;28;20856;-80
2021/05/13 09:25:37;;;;;;;6.80;6.27;;;22.80;61.50;;;;;;5051892;28;20492;-80
2021/05/13 09:28:04;;;;;;;6.37;5.97;;;22.80;61.70;;;;;;5053760;28;20767;-80
2021/05/13 09:30:30;;;;;;;6.10;5.53;;;22.80;61.50;;;;;;5055830;28;20947;-80
2021/05/13 09:33:03;;;;;;;6.40;5.83;;;22.80;62.50;;;;;;5055215;28;20492;-79
2021/05/13 09:35:32;;;;;;;14.80;13.50;;;22.90;61.80;;;;;;5055854;28;20420;-79
2021/05/13 09:38:07;;;;;;;40.20;32.73;;;23.00;59.70;;;;;;5054815;28;20406;-79
2021/05/13 09:40:42;;;;;;;18.50;16.80;;;23.10;62.40;;;;;;5055066;28;20846;-79
2021/05/13 09:43:09;;;;;;;16.63;14.90;;;23.20;61.60;;;;;;5054985;28;20169;-80
2021/05/13 09:45:49;;;;;;;6.00;5.70;;;23.50;61.70;;;;;;5055442;28;20448;-80
2021/05/13 09:48:37;;;;;;;14.87;13.57;;;23.50;59.50;;;;;;5055555;28;20491;-80
2021/05/13 09:51:30;;;;;;;14.53;13.30;;;23.40;60.50;;;;;;5054553;28;20487;-80
2021/05/13 09:54:15;;;;;;;11.57;10.70;;;23.10;60.70;;;;;;5055104;28;20458;-80
2021/05/13 09:56:52;;;;;;;11.23;10.40;;;23.00;63.60;;;;;;5055320;28;20768;-80
2021/05/13 09:59:38;;;;;;;10.33;9.50;;;22.90;62.30;;;;;;5055245;28;20400;-80
2021/05/13 10:02:09;;;;;;;9.60;8.90;;;22.90;62.90;;;;;;5054696;28;20404;-80
2021/05/13 10:04:35;;;;;;;9.60;8.83;;;22.90;63.10;;;;;;5055351;28;20776;-80
2021/05/13 10:07:00;;;;;;;9.20;8.47;;;23.10;65.10;;;;;;5036729;28;20411;-80
2021/05/13 10:09:26;;;;;;;9.40;8.60;;;23.20;64.00;;;;;;5037206;28;20185;-80
2021/05/13 10:11:54;;;;;;;7.70;7.20;;;23.30;63.70;;;;;;5036735;28;20515;-80
2021/05/13 10:14:22;;;;;;;8.40;7.90;;;23.50;62.90;;;;;;5055355;28;20213;-79
2021/05/13 10:16:50;;;;;;;8.80;7.93;;;23.60;61.60;;;;;;5054934;28;20764;-80
2021/05/13 10:19:23;;;;;;;8.20;7.67;;;23.80;62.40;;;;;;5036524;28;20757;-80
2021/05/13 10:21:50;;;;;;;7.90;7.40;;;24.00;61.80;;;;;;5054902;28;20813;-80
2021/05/13 10:24:16;;;;;;;8.07;7.37;;;24.00;60.80;;;;;;5053811;28;20448;-80
2021/05/13 10:26:49;;;;;;;8.23;7.70;;;24.20;60.10;;;;;;5054098;28;20875;-80
2021/05/13 10:32:08;;;;;;;9.10;8.40;;;24.20;59.40;;;;;;5054551;28;20466;-79
2021/05/13 10:34:46;;;;;;;8.20;7.37;;;24.10;59.20;;;;;;5054370;28;20780;-80
2021/05/13 10:37:19;;;;;;;8.87;8.10;;;23.90;59.30;;;;;;5053540;28;20450;-80
2021/05/13 10:40:18;;;;;;;8.37;7.80;;;23.70;59.50;;;;;;5054046;28;20473;-80
2021/05/13 10:42:45;;;;;;;7.17;6.57;;;23.50;59.90;;;;;;5054504;28;20397;-80
2021/05/13 10:45:23;;;;;;;6.17;5.77;;;23.40;58.00;;;;;;5053757;28;20464;-80
2021/05/13 10:48:09;;;;;;;8.73;8.13;;;23.20;58.60;;;;;;5054597;28;20903;-80
2021/05/13 10:50:49;;;;;;;7.30;6.80;;;23.10;58.40;;;;;;5054241;28;20431;-80
2021/05/13 10:53:33;;;;;;;6.20;5.80;;;22.90;58.10;;;;;;5053714;28;20412;-79
2021/05/13 10:56:23;;;;;;;9.70;8.90;;;22.70;57.90;;;;;;5053522;28;20447;-80
2021/05/13 10:59:10;;;;;;;190.63;165.53;;;22.50;59.80;;;;;;5054251;28;20413;-79
2021/05/13 11:01:51;;;;;;;9.37;8.50;;;22.40;60.60;;;;;;5054271;28;20405;-81
2021/05/13 11:04:23;;;;;;;9.50;8.80;;;22.30;60.80;;;;;;5053299;28;20451;-79
2021/05/13 11:06:53;;;;;;;12.50;11.30;;;22.20;62.20;;;;;;5054007;28;20412;-80
2021/05/13 11:09:37;;;;;;;11.80;10.37;;;22.20;62.10;;;;;;5053332;28;20433;-79
2021/05/13 11:12:09;;;;;;;12.60;11.40;;;22.10;62.10;;;;;;5053157;28;20408;-79
2021/05/13 11:20:46;;;;;;;10.40;9.60;;;21.90;61.30;;;;;;5053740;28;20392;-80
2021/05/13 11:23:19;;;;;;;8.93;8.30;;;21.90;61.20;;;;;;5053118;28;20429;-80
2021/05/13 11:25:47;;;;;;;7.77;7.27;;;21.80;61.50;;;;;;5053639;28;20472;-79
2021/05/13 11:28:22;;;;;;;6.50;6.00;;;21.90;62.10;;;;;;5053303;28;20459;-79
2021/05/13 11:30:50;;;;;;;6.80;6.30;;;21.90;61.00;;;;;;5053421;28;20415;-79
2021/05/13 11:33:16;;;;;;;8.53;7.10;;;21.90;59.50;;;;;;5052790;28;20499;-80
2021/05/13 11:35:42;;;;;;;6.77;6.27;;;21.90;60.50;;;;;;5053416;28;20802;-79
2021/05/13 11:38:19;;;;;;;7.83;7.17;;;21.90;63.40;;;;;;5052763;28;20554;-80
2021/05/13 11:40:46;;;;;;;6.93;6.43;;;22.00;61.60;;;;;;5053240;28;20173;-80
2021/05/13 11:43:27;;;;;;;6.23;5.83;;;22.10;62.40;;;;;;5052347;28;20408;-79
2021/05/13 11:45:58;;;;;;;7.00;6.30;;;22.20;58.10;;;;;;5053353;28;20455;-79
2021/05/13 11:48:28;;;;;;;7.43;6.83;;;22.30;60.20;;;;;;5035566;28;20405;-80
2021/05/13 11:50:59;;;;;;;7.40;6.90;;;22.30;60.50;;;;;;5052065;28;20400;-79
2021/05/13 11:53:26;;;;;;;8.80;8.10;;;22.30;59.50;;;;;;5052679;28;20396;-79
2021/05/13 11:55:52;;;;;;;9.70;8.87;;;22.20;59.40;;;;;;5052763;28;20415;-79
2021/05/13 11:58:42;;;;;;;8.87;8.10;;;22.10;59.80;;;;;;5052406;28;20416;-79
2021/05/13 12:01:21;;;;;;;9.10;8.43;;;21.90;59.50;;;;;;5052397;28;20450;-80
2021/05/13 12:03:49;;;;;;;7.33;6.77;;;21.90;59.40;;;;;;5052960;28;20419;-80
2021/05/13 12:06:15;;;;;;;8.07;7.47;;;21.90;59.30;;;;;;5052178;28;20460;-79
2021/05/13 12:08:41;;;;;;;7.50;7.00;;;21.90;59.40;;;;;;5052888;28;20756;-80
2021/05/13 12:11:36;;;;;;;6.90;6.40;;;21.80;59.30;;;;;;5052172;28;20173;-80
2021/05/13 12:14:07;;;;;;;6.70;6.23;;;21.80;59.00;;;;;;5031012;28;20424;-80
2021/05/13 12:16:33;;;;;;;7.60;6.90;;;21.80;59.30;;;;;;5052809;28;20392;-80
2021/05/13 12:19:04;;;;;;;6.10;5.70;;;21.80;59.00;;;;;;5052160;28;20404;-80
2021/05/13 12:21:30;;;;;;;6.60;6.00;;;21.90;59.30;;;;;;5052506;28;20818;-79
2021/05/13 12:23:57;;;;;;;8.40;7.80;;;21.90;59.60;;;;;;5052515;28;20408;-79
2021/05/13 12:26:25;;;;;;;6.13;5.63;;;21.90;61.20;;;;;;5051634;28;20448;-79
2021/05/13 12:28:52;;;;;;;6.87;6.33;;;21.90;58.10;;;;;;5052541;28;20411;-79
2021/05/13 12:31:36;;;;;;;6.17;5.60;;;21.90;58.20;;;;;;5051863;28;20420;-79
2021/05/13 12:34:05;;;;;;;6.17;5.77;;;21.90;59.20;;;;;;5051999;28;20400;-80
2021/05/13 12:36:36;;;;;;;5.97;5.47;;;21.90;59.60;;;;;;5052176;28;20947;-80
2021/05/13 12:39:03;;;;;;;6.03;5.63;;;21.80;59.40;;;;;;5051634;28;20412;-80
2021/05/13 12:41:29;;;;;;;5.93;5.53;;;21.80;59.40;;;;;;5052408;28;20408;-79
2021/05/13 12:44:17;;;;;;;6.20;5.80;;;21.80;59.10;;;;;;5052392;28;20412;-79
2021/05/13 12:46:47;;;;;;;6.90;6.37;;;21.80;59.40;;;;;;5052525;28;20203;-79
2021/05/13 12:49:24;;;;;;;7.50;6.67;;;21.70;59.40;;;;;;5051422;28;20900;-80
2021/05/13 12:52:14;;;;;;;5.37;5.00;;;21.80;59.20;;;;;;5052295;28;20408;-79
2021/05/13 12:54:41;;;;;;;6.10;5.60;;;21.80;58.90;;;;;;5051712;28;20469;-79
2021/05/13 12:57:20;;;;;;;7.27;6.63;;;21.90;59.20;;;;;;5051719;28;20834;-79